Terminal Aerodrome Forecast
Issued by NWS

Home | Current Version | Previous Version | Text Only | Print | Product List | Glossary On
Versions: 1 2 3 4 5 6 7 8 9 10 11 12 13 14
000
FTUS46 KMFR 182300
TAFLMT
TAF
KLMT 182338Z 1900/1924 30009KT P6SM SCT150
     FM190400 VRB03KT P6SM SCT150
     FM191700 21015G25KT P6SM SCT080 BKN120
     FM192000 27022G30KT P6SM BKN050 BKN080=

USA.gov is the U.S. government's official web portal to all federal, state and local government web resources and services.